Time;durP1;ratioP1;P1;durP2;ratioP2;P2;SDS_P1;SDS_P2;PMS_P1;PMS_P2;Temp;Humidity;BMP_temperature;BMP_pressure;BME280_temperature;BME280_humidity;BME280_pressure;Samples;Min_cycle;Max_cycle;Signal;HPM_P1;HPM_P2
2022/04/01 00:01:58;;;;;;;4.80;2.58;;;1.10;99.90;;;;;;4999807;28;20056;-75
2022/04/01 00:04:24;;;;;;;5.43;2.22;;;1.10;99.90;;;;;;5017193;28;20038;-75
2022/04/01 00:06:49;;;;;;;6.65;3.08;;;1.10;99.90;;;;;;4999900;28;20053;-75
2022/04/01 00:09:15;;;;;;;5.72;2.40;;;1.10;99.90;;;;;;4994940;28;20053;-73
2022/04/01 00:11:40;;;;;;;8.98;2.65;;;1.10;99.90;;;;;;5016856;28;20034;-74
2022/04/01 00:14:06;;;;;;;5.70;2.30;;;1.10;99.90;;;;;;5015817;28;20037;-75
2022/04/01 00:16:32;;;;;;;6.65;2.60;;;1.10;99.90;;;;;;4999295;28;20058;-74
2022/04/01 00:18:58;;;;;;;4.50;1.98;;;1.20;99.90;;;;;;4999777;28;20052;-76
2022/04/01 00:21:24;;;;;;;7.25;1.88;;;1.10;99.90;;;;;;4999199;28;20119;-76
2022/04/01 00:23:49;;;;;;;6.55;2.35;;;1.10;99.90;;;;;;4999458;28;20057;-76
2022/04/01 00:26:15;;;;;;;4.50;2.13;;;1.20;99.90;;;;;;4999685;28;20508;-75
2022/04/01 00:28:40;;;;;;;4.28;2.15;;;1.30;99.90;;;;;;5016325;28;20541;-76
2022/04/01 00:31:06;;;;;;;6.32;2.40;;;1.20;99.90;;;;;;4999286;28;20057;-76
2022/04/01 00:33:32;;;;;;;5.55;2.13;;;1.20;99.90;;;;;;4999165;28;20366;-74
2022/04/01 00:35:57;;;;;;;4.15;2.05;;;1.30;99.90;;;;;;5016590;28;20041;-73
2022/04/01 00:38:24;;;;;;;4.32;2.10;;;1.30;99.90;;;;;;5016461;28;20046;-75
2022/04/01 00:40:51;;;;;;;6.80;2.28;;;1.20;99.90;;;;;;4999127;28;20458;-77
2022/04/01 00:43:25;;;;;;;4.97;2.28;;;1.20;99.90;;;;;;4982314;28;20046;-76
2022/04/01 00:45:50;;;;;;;;;;;1.20;99.90;;;;;;4999546;28;20049;-75
2022/04/01 00:48:17;;;;;;;5.40;2.40;;;1.20;99.90;;;;;;4998452;28;19917;-76
2022/04/01 00:50:43;;;;;;;4.22;2.20;;;1.20;99.90;;;;;;4998726;28;20361;-76
2022/04/01 00:53:09;;;;;;;4.85;2.08;;;1.20;99.90;;;;;;5015451;28;20435;-77
2022/04/01 00:55:35;;;;;;;5.05;2.22;;;1.20;99.90;;;;;;4982466;28;20069;-76
2022/04/01 00:58:04;;;;;;;7.20;2.22;;;1.30;99.90;;;;;;5011393;28;20465;-75
2022/04/01 01:00:30;;;;;;;4.25;2.42;;;1.30;99.90;;;;;;4998586;28;20457;-76
2022/04/01 01:02:57;;;;;;;7.00;2.42;;;1.40;99.90;;;;;;4998679;28;20042;-75
2022/04/01 01:05:23;;;;;;;4.22;1.95;;;1.30;99.90;;;;;;5015984;28;20046;-75
2022/04/01 01:07:49;;;;;;;6.72;2.88;;;1.50;99.90;;;;;;4982445;28;20053;-75
2022/04/01 01:10:18;;;;;;;4.50;2.00;;;1.30;99.90;;;;;;4998617;28;20370;-76
2022/04/01 01:12:46;;;;;;;5.38;2.10;;;1.40;99.90;;;;;;4998491;28;20069;-76
2022/04/01 01:15:16;;;;;;;7.20;2.30;;;1.40;99.90;;;;;;5015089;28;20373;-75
2022/04/01 01:17:41;;;;;;;5.88;2.10;;;1.30;99.90;;;;;;4998147;28;20084;-75
2022/04/01 01:20:12;;;;;;;7.03;2.58;;;1.30;99.90;;;;;;4998077;28;20112;-75
2022/04/01 01:22:42;;;;;;;6.80;2.30;;;1.40;99.90;;;;;;5015020;28;20053;-75
2022/04/01 01:25:09;;;;;;;6.15;2.00;;;1.40;99.90;;;;;;4998659;28;20046;-74
2022/04/01 01:27:35;;;;;;;5.03;2.38;;;1.40;99.90;;;;;;5015535;28;20041;-74
2022/04/01 01:30:02;;;;;;;8.13;2.03;;;1.40;99.90;;;;;;5015546;28;20049;-75
2022/04/01 01:32:29;;;;;;;4.60;2.13;;;1.40;99.90;;;;;;4998082;28;20056;-75
2022/04/01 01:34:56;;;;;;;4.78;1.90;;;1.50;99.90;;;;;;4982513;28;20050;-76
2022/04/01 01:37:22;;;;;;;6.57;2.00;;;1.50;99.90;;;;;;4998181;28;20038;-75
2022/04/01 01:39:49;;;;;;;4.45;2.10;;;1.50;99.90;;;;;;4995122;28;20446;-75
2022/04/01 01:42:15;;;;;;;3.10;1.92;;;1.50;99.90;;;;;;5015494;28;20034;-75
2022/04/01 01:44:41;;;;;;;3.75;1.92;;;1.50;99.90;;;;;;5015093;28;20072;-75
2022/04/01 01:47:07;;;;;;;3.45;2.08;;;1.60;99.90;;;;;;4997903;28;20042;-75
2022/04/01 01:49:33;;;;;;;3.97;2.10;;;1.50;99.90;;;;;;5015216;28;20042;-76
2022/04/01 01:54:49;;;;;;;3.75;1.92;;;1.60;99.90;;;;;;5015150;28;20058;-74
2022/04/01 01:57:23;;;;;;;4.55;2.38;;;1.60;99.90;;;;;;5012446;28;20042;-75
2022/04/01 01:59:52;;;;;;;6.97;2.20;;;1.70;99.90;;;;;;4981650;28;20056;-75
2022/04/01 02:02:19;;;;;;;6.68;2.00;;;1.70;99.90;;;;;;5015031;28;20045;-75
2022/04/01 02:04:46;;;;;;;4.78;1.92;;;1.70;99.90;;;;;;5015916;28;20398;-73
2022/04/01 02:07:11;;;;;;;5.50;2.30;;;1.70;99.90;;;;;;5019109;28;20050;-75
2022/04/01 02:09:40;;;;;;;6.93;2.42;;;1.70;99.90;;;;;;5019228;28;20046;-75
2022/04/01 02:12:06;;;;;;;3.38;2.13;;;1.70;99.90;;;;;;4985504;28;20049;-75
2022/04/01 02:14:34;;;;;;;8.52;2.22;;;1.70;99.90;;;;;;5001315;28;20384;-76
2022/04/01 02:17:00;;;;;;;4.40;2.20;;;1.80;99.90;;;;;;5001367;28;20038;-74
2022/04/01 02:19:25;;;;;;;4.07;2.20;;;1.70;99.90;;;;;;5019265;28;20048;-76
2022/04/01 02:21:53;;;;;;;4.38;1.90;;;1.80;99.90;;;;;;5019129;28;20446;-74
2022/04/01 02:24:21;;;;;;;5.45;2.25;;;2.80;99.90;;;;;;4985467;28;20050;-75
2022/04/01 02:26:47;;;;;;;5.07;2.15;;;1.70;99.90;;;;;;5001354;28;20049;-75
2022/04/01 02:29:15;;;;;;;7.07;2.15;;;1.70;99.90;;;;;;5018760;28;20041;-74
2022/04/01 02:31:43;;;;;;;4.22;1.77;;;1.70;99.90;;;;;;5001322;28;20042;-75
2022/04/01 02:34:08;;;;;;;6.50;2.20;;;1.70;99.90;;;;;;5001493;28;20473;-73
2022/04/01 02:36:34;;;;;;;7.75;1.90;;;1.80;99.90;;;;;;4985445;28;20042;-77
2022/04/01 02:39:01;;;;;;;4.00;1.85;;;1.70;99.90;;;;;;4985180;28;20133;-74
2022/04/01 02:41:27;;;;;;;5.70;2.10;;;1.80;99.90;;;;;;5018650;28;20042;-75
2022/04/01 02:44:08;;;;;;;3.10;1.83;;;1.80;99.90;;;;;;5000948;28;20052;-74
2022/04/01 02:46:34;;;;;;;4.88;2.65;;;1.70;99.90;;;;;;5001194;28;20093;-75
2022/04/01 02:49:00;;;;;;;6.05;2.00;;;2.50;99.90;;;;;;4984885;28;20116;-75
2022/04/01 02:51:26;;;;;;;3.70;1.88;;;1.70;99.90;;;;;;5018467;28;20045;-74
2022/04/01 02:53:52;;;;;;;5.18;1.70;;;1.70;99.90;;;;;;5018459;28;20149;-74
2022/04/01 02:56:17;;;;;;;3.65;1.92;;;1.70;99.90;;;;;;5018229;28;20358;-75
2022/04/01 02:58:43;;;;;;;5.05;1.98;;;1.70;99.90;;;;;;5001186;28;20057;-74
2022/04/01 03:01:08;;;;;;;4.82;1.88;;;1.70;99.90;;;;;;4998093;28;20087;-76
2022/04/01 03:03:34;;;;;;;6.35;2.00;;;1.70;99.90;;;;;;5000692;28;20173;-76
2022/04/01 03:06:00;;;;;;;5.85;2.05;;;1.70;99.90;;;;;;5018175;28;20038;-76
2022/04/01 03:08:26;;;;;;;4.20;2.03;;;1.70;99.90;;;;;;5000596;28;20361;-74
2022/04/01 03:10:53;;;;;;;4.82;2.10;;;1.70;99.90;;;;;;5000504;28;20054;-76
2022/04/01 03:13:18;;;;;;;5.32;2.42;;;1.70;99.90;;;;;;5017490;28;20050;-75
2022/04/01 03:15:44;;;;;;;4.38;2.10;;;1.70;99.90;;;;;;5017562;28;20060;-73
2022/04/01 03:18:10;;;;;;;5.78;2.17;;;1.70;99.90;;;;;;4985779;28;20047;-75
2022/04/01 03:20:35;;;;;;;4.03;2.00;;;1.70;99.90;;;;;;4944859;28;20059;-74
2022/04/01 03:23:02;;;;;;;3.28;1.60;;;1.70;99.90;;;;;;4960873;28;20411;-75
2022/04/01 03:25:32;;;;;;;7.03;2.20;;;1.60;99.90;;;;;;4978761;28;20057;-74
2022/04/01 03:27:59;;;;;;;5.50;1.70;;;1.60;99.90;;;;;;4961558;28;20038;-74
2022/04/01 03:30:25;;;;;;;6.85;2.00;;;1.60;99.90;;;;;;4961703;28;20050;-73
2022/04/01 03:32:50;;;;;;;4.25;1.90;;;1.60;99.90;;;;;;4961777;28;20039;-75
2022/04/01 03:35:17;;;;;;;4.68;1.80;;;1.60;99.90;;;;;;4978688;28;20455;-74
2022/04/01 03:37:49;;;;;;;4.35;2.05;;;1.70;99.90;;;;;;4977944;28;20085;-75
2022/04/01 03:40:15;;;;;;;5.13;2.50;;;1.70;99.90;;;;;;4945692;28;20050;-74
2022/04/01 03:42:45;;;;;;;7.43;1.80;;;1.70;99.90;;;;;;4978251;28;20082;-74
2022/04/01 03:45:12;;;;;;;6.05;1.80;;;1.80;99.90;;;;;;5015553;28;20049;-73
2022/04/01 03:47:44;;;;;;;3.95;1.85;;;1.80;99.90;;;;;;5017598;28;20042;-75
2022/04/01 03:50:12;;;;;;;5.50;1.73;;;1.70;99.90;;;;;;4999978;28;20133;-74
2022/04/01 03:52:37;;;;;;;4.90;1.77;;;1.80;99.90;;;;;;4999037;28;20098;-74
2022/04/01 03:55:06;;;;;;;4.15;1.90;;;1.80;99.90;;;;;;5016954;28;20402;-76
2022/04/01 03:57:37;;;;;;;5.60;1.80;;;1.80;99.90;;;;;;5016952;28;20041;-76
2022/04/01 04:00:08;;;;;;;4.93;1.98;;;1.80;99.90;;;;;;4960162;28;20097;-74
2022/04/01 04:02:34;;;;;;;4.57;1.77;;;1.90;99.90;;;;;;4975855;28;20053;-75
2022/04/01 04:05:06;;;;;;;4.53;2.00;;;1.90;99.90;;;;;;4960152;28;20050;-74
2022/04/01 04:07:32;;;;;;;4.30;1.98;;;1.90;99.90;;;;;;4960039;28;20046;-74
2022/04/01 04:09:59;;;;;;;2.90;1.60;;;1.90;99.90;;;;;;4959936;28;20062;-74
2022/04/01 04:12:27;;;;;;;5.85;2.10;;;1.90;99.90;;;;;;4959712;28;20054;-75
2022/04/01 04:14:54;;;;;;;5.57;1.70;;;1.90;99.90;;;;;;4942721;28;20102;-75
2022/04/01 04:17:46;;;;;;;5.03;1.80;;;1.90;99.90;;;;;;4975454;28;20497;-76
2022/04/01 04:20:26;;;;;;;5.97;1.83;;;1.90;99.90;;;;;;4953429;28;20506;-75
2022/04/01 04:23:07;;;;;;;4.38;1.70;;;1.80;99.90;;;;;;4971349;28;20151;-74
2022/04/01 04:25:37;;;;;;;4.57;1.58;;;1.90;99.90;;;;;;4959425;28;20059;-74
2022/04/01 04:28:09;;;;;;;3.95;1.80;;;1.90;99.90;;;;;;4975699;28;20058;-76
2022/04/01 04:30:38;;;;;;;4.07;1.67;;;2.60;99.90;;;;;;4972151;28;20124;-75
2022/04/01 04:33:08;;;;;;;5.30;1.80;;;1.80;99.90;;;;;;4999018;28;20125;-74
2022/04/01 04:36:06;;;;;;;4.13;1.70;;;1.80;99.90;;;;;;4990985;28;20038;-75
2022/04/01 04:38:43;;;;;;;3.95;1.65;;;1.80;99.90;;;;;;4979608;28;20052;-74
2022/04/01 04:41:09;;;;;;;4.38;1.52;;;1.80;99.90;;;;;;4962998;28;20050;-75
2022/04/01 04:43:42;;;;;;;6.38;1.70;;;1.90;99.90;;;;;;4987016;28;20072;-72
2022/04/01 04:46:08;;;;;;;6.67;2.20;;;1.90;99.90;;;;;;5016283;28;20068;-75
2022/04/01 04:48:36;;;;;;;4.40;1.90;;;1.80;99.90;;;;;;5016404;28;20327;-74
2022/04/01 04:51:05;;;;;;;5.97;1.90;;;1.80;99.90;;;;;;5015969;28;20042;-73
2022/04/01 04:53:34;;;;;;;5.25;1.77;;;1.80;99.90;;;;;;4999187;28;20053;-75
2022/04/01 04:56:02;;;;;;;4.63;1.63;;;1.80;99.90;;;;;;5016363;28;20075;-72
2022/04/01 04:58:34;;;;;;;9.65;1.70;;;1.80;99.90;;;;;;5016317;28;20108;-76
2022/04/01 05:01:13;;;;;;;4.43;1.77;;;1.70;99.90;;;;;;4999005;28;20068;-75
2022/04/01 05:04:25;;;;;;;4.20;1.83;;;1.80;99.90;;;;;;5016083;28;20042;-75
2022/04/01 05:07:15;;;;;;;4.90;1.60;;;1.80;99.90;;;;;;4993728;28;20513;-73
2022/04/01 05:09:50;;;;;;;4.22;1.65;;;1.80;99.90;;;;;;4996032;28;20051;-73
2022/04/01 05:12:33;;;;;;;5.20;2.15;;;1.70;99.90;;;;;;4996030;28;20054;-74
2022/04/01 05:14:59;;;;;;;6.95;2.05;;;1.70;99.90;;;;;;4975524;28;20035;-76
2022/04/01 05:17:43;;;;;;;3.67;1.77;;;1.70;99.90;;;;;;4993179;28;20081;-73
2022/04/01 05:20:16;;;;;;;6.10;1.75;;;1.80;99.90;;;;;;4974739;28;20141;-70
2022/04/01 05:22:50;;;;;;;5.35;1.85;;;1.80;99.90;;;;;;4982900;28;20051;-70
2022/04/01 05:25:24;;;;;;;3.15;1.75;;;1.80;99.90;;;;;;4995721;28;20121;-70
2022/04/01 05:27:52;;;;;;;4.10;1.85;;;1.80;99.90;;;;;;4980095;28;20042;-70
2022/04/01 05:30:20;;;;;;;3.97;1.88;;;1.80;99.90;;;;;;4995709;28;20355;-69
2022/04/01 05:32:49;;;;;;;5.93;2.00;;;1.80;99.90;;;;;;4995293;28;20046;-71
2022/04/01 05:35:16;;;;;;;6.57;1.70;;;1.80;99.90;;;;;;4995405;28;20042;-69
2022/04/01 05:37:42;;;;;;;5.63;2.00;;;1.80;99.90;;;;;;5001035;28;20080;-71
2022/04/01 05:40:09;;;;;;;9.20;1.70;;;1.90;99.90;;;;;;5014689;28;20510;-70
2022/04/01 05:42:37;;;;;;;3.97;1.60;;;1.90;99.90;;;;;;5014941;28;20056;-70
2022/04/01 05:45:03;;;;;;;5.43;1.67;;;2.00;99.90;;;;;;5014918;28;20046;-71
2022/04/01 05:47:31;;;;;;;4.20;1.85;;;2.00;99.90;;;;;;5015039;28;20053;-69
2022/04/01 05:49:58;;;;;;;2.90;1.50;;;2.00;99.90;;;;;;5014881;28;20095;-70
2022/04/01 05:52:24;;;;;;;5.93;1.90;;;2.10;99.90;;;;;;5015182;28;20120;-70
2022/04/01 05:54:51;;;;;;;4.65;1.90;;;2.10;99.90;;;;;;5014800;28;20133;-71
2022/04/01 05:57:18;;;;;;;4.47;1.67;;;2.10;99.90;;;;;;5014775;28;20045;-69
2022/04/01 05:59:44;;;;;;;4.32;1.70;;;2.20;99.90;;;;;;5014257;28;20421;-70
2022/04/01 06:02:36;;;;;;;3.67;1.58;;;2.20;99.90;;;;;;5014647;28;20041;-69
2022/04/01 06:05:26;;;;;;;4.20;1.67;;;2.20;99.90;;;;;;5014613;28;20189;-69
2022/04/01 06:08:38;;;;;;;3.50;1.80;;;2.30;99.90;;;;;;5013814;28;20129;-69
2022/04/01 06:11:15;;;;;;;4.75;2.05;;;2.30;99.90;;;;;;4997232;28;20085;-70
2022/04/01 06:14:05;;;;;;;7.10;1.70;;;2.40;99.90;;;;;;5014950;28;20045;-70
2022/04/01 06:16:59;;;;;;;8.23;1.90;;;2.40;99.90;;;;;;5014674;28;20042;-70
2022/04/01 06:19:45;;;;;;;4.68;1.92;;;2.40;99.90;;;;;;4996286;28;20469;-69
2022/04/01 06:22:14;;;;;;;6.38;2.03;;;2.40;99.90;;;;;;4994981;28;20046;-70
2022/04/01 06:24:58;;;;;;;4.60;1.75;;;2.50;99.90;;;;;;4995219;28;20058;-70
2022/04/01 06:27:33;;;;;;;4.15;1.90;;;2.50;99.90;;;;;;4992606;28;20054;-71
2022/04/01 06:30:07;;;;;;;5.03;1.65;;;2.50;99.90;;;;;;4990881;28;20127;-69
2022/04/01 06:32:33;;;;;;;;;;;2.60;99.90;;;;;;4994127;28;20034;-69
2022/04/01 06:35:49;;;;;;;4.00;1.92;;;2.60;99.90;;;;;;4985037;28;19933;-71
2022/04/01 06:38:59;;;;;;;6.75;2.20;;;2.70;99.90;;;;;;4953453;28;20055;-71
2022/04/01 06:41:42;;;;;;;8.90;1.75;;;2.70;99.90;;;;;;4945593;29;20059;-71
2022/04/01 06:44:09;;;;;;;7.43;1.90;;;2.70;99.90;;;;;;4987185;28;20121;-71
2022/04/01 06:46:35;;;;;;;6.07;2.10;;;2.70;99.90;;;;;;4974561;28;20038;-72
2022/04/01 06:49:01;;;;;;;3.30;1.70;;;2.70;99.90;;;;;;4994376;28;20035;-71
2022/04/01 06:51:26;;;;;;;4.93;1.65;;;2.70;99.90;;;;;;4977631;28;20089;-71
2022/04/01 06:53:52;;;;;;;3.47;1.73;;;2.80;99.90;;;;;;4998093;28;20061;-70
2022/04/01 06:56:18;;;;;;;3.47;1.60;;;2.80;99.90;;;;;;4980809;28;20061;-70
2022/04/01 06:58:45;;;;;;;4.97;2.03;;;2.80;99.90;;;;;;4998158;28;20050;-70
2022/04/01 07:01:12;;;;;;;8.93;2.30;;;2.80;99.90;;;;;;4980816;28;20086;-71
2022/04/01 07:03:39;;;;;;;5.55;1.90;;;2.90;99.90;;;;;;4997913;28;20062;-72
2022/04/01 07:06:06;;;;;;;5.57;2.08;;;2.90;99.90;;;;;;4998555;28;20042;-72
2022/04/01 07:08:32;;;;;;;5.65;1.90;;;3.30;99.90;;;;;;4994100;28;20042;-71
2022/04/01 07:10:58;;;;;;;6.88;1.73;;;3.00;99.90;;;;;;5017758;28;20068;-71
2022/04/01 07:13:23;;;;;;;3.92;1.73;;;3.00;99.90;;;;;;5000259;28;20050;-72
2022/04/01 07:15:50;;;;;;;4.03;2.25;;;3.00;99.90;;;;;;5000192;28;20049;-71
2022/04/01 07:18:18;;;;;;;3.80;1.92;;;3.00;99.90;;;;;;5000190;28;20082;-74
2022/04/01 07:20:43;;;;;;;7.03;2.08;;;3.00;99.90;;;;;;5016310;28;20136;-73
2022/04/01 07:23:09;;;;;;;3.92;1.67;;;3.00;99.90;;;;;;4999583;28;20109;-72
2022/04/01 07:25:34;;;;;;;5.43;1.60;;;3.10;99.90;;;;;;5017519;28;20100;-72
2022/04/01 07:28:00;;;;;;;4.18;1.90;;;3.10;99.90;;;;;;5017993;28;20096;-71
2022/04/01 07:30:26;;;;;;;4.53;1.73;;;3.10;99.90;;;;;;4999660;28;20042;-71
2022/04/01 07:33:03;;;;;;;4.07;1.50;;;3.10;99.90;;;;;;5014503;28;20050;-72
2022/04/01 07:35:30;;;;;;;4.18;1.90;;;3.10;99.90;;;;;;5017144;28;20340;-71
2022/04/01 07:37:56;;;;;;;6.25;2.13;;;3.10;99.90;;;;;;5016604;28;20365;-71
2022/04/01 07:40:24;;;;;;;4.57;1.75;;;3.10;99.90;;;;;;5000236;28;20140;-71
2022/04/01 07:42:50;;;;;;;4.47;1.80;;;3.10;99.90;;;;;;5017177;28;20050;-72
2022/04/01 07:45:17;;;;;;;6.13;2.30;;;3.20;99.90;;;;;;5016938;28;20354;-72
2022/04/01 07:47:44;;;;;;;5.15;2.03;;;3.20;99.90;;;;;;5000235;28;20046;-72
2022/04/01 07:50:12;;;;;;;4.15;1.90;;;3.20;99.90;;;;;;5016966;28;20050;-73
2022/04/01 07:52:40;;;;;;;3.95;1.95;;;3.20;99.90;;;;;;4999296;28;20355;-72
2022/04/01 07:55:11;;;;;;;5.05;2.70;;;3.20;99.90;;;;;;5017408;28;20049;-72
2022/04/01 07:57:39;;;;;;;5.03;1.98;;;3.30;99.90;;;;;;4999536;28;20462;-73
2022/04/01 08:00:07;;;;;;;5.47;1.92;;;3.30;99.90;;;;;;5017290;28;20358;-71
2022/04/01 08:02:33;;;;;;;5.47;2.20;;;3.20;99.90;;;;;;4998784;28;20124;-71
2022/04/01 08:04:59;;;;;;;4.45;1.88;;;3.30;99.90;;;;;;5016204;28;20132;-70
2022/04/01 08:07:24;;;;;;;6.50;1.95;;;3.20;99.90;;;;;;5016242;28;20045;-72
2022/04/01 08:09:50;;;;;;;4.63;2.05;;;3.10;99.90;;;;;;5016851;28;20418;-72
2022/04/01 08:12:16;;;;;;;5.47;2.17;;;3.00;99.90;;;;;;4999131;28;20122;-72
2022/04/01 08:14:42;;;;;;;5.97;1.98;;;3.00;99.90;;;;;;5016760;28;20117;-73
2022/04/01 08:17:11;;;;;;;6.55;2.33;;;3.00;99.90;;;;;;5016632;28;20351;-73
2022/04/01 08:19:38;;;;;;;4.95;2.20;;;3.10;99.90;;;;;;5016162;28;20347;-72
2022/04/01 08:22:04;;;;;;;4.63;2.08;;;2.90;99.90;;;;;;5016557;28;20129;-71
2022/04/01 08:24:30;;;;;;;4.38;2.28;;;2.90;99.90;;;;;;5016264;28;20045;-72
2022/04/01 08:26:57;;;;;;;5.10;2.60;;;2.80;99.90;;;;;;5016570;28;20402;-71
2022/04/01 08:29:26;;;;;;;4.85;2.10;;;2.80;99.90;;;;;;5016708;28;20120;-73
2022/04/01 08:31:51;;;;;;;4.35;2.20;;;2.80;99.90;;;;;;4996860;28;20524;-72
2022/04/01 08:34:17;;;;;;;5.07;2.55;;;2.80;99.90;;;;;;4991208;28;20034;-71
2022/04/01 08:36:42;;;;;;;4.60;2.67;;;2.70;99.90;;;;;;4978188;28;20467;-71
2022/04/01 08:39:09;;;;;;;6.53;2.85;;;2.70;99.90;;;;;;4995801;28;20064;-70
2022/04/01 08:41:35;;;;;;;6.40;3.13;;;2.70;99.90;;;;;;4996112;28;20050;-71
2022/04/01 08:44:03;;;;;;;7.57;2.70;;;2.60;99.90;;;;;;4996207;28;20046;-70
2022/04/01 08:46:30;;;;;;;13.20;3.38;;;2.50;99.90;;;;;;4945682;28;20480;-71
2022/04/01 08:48:56;;;;;;;8.73;4.15;;;2.50;99.90;;;;;;4995630;28;20093;-69
2022/04/01 08:51:22;;;;;;;6.15;3.65;;;2.40;99.90;;;;;;4992184;28;20038;-73
2022/04/01 08:53:49;;;;;;;8.02;4.00;;;2.40;99.90;;;;;;4993511;28;20058;-71
2022/04/01 08:56:19;;;;;;;8.98;4.63;;;2.50;99.90;;;;;;4995220;28;20035;-71
2022/04/01 08:58:45;;;;;;;7.20;4.65;;;2.30;99.90;;;;;;4977765;28;20133;-72
2022/04/01 09:01:14;;;;;;;9.30;5.03;;;2.40;99.90;;;;;;4995397;28;20394;-72
2022/04/01 09:03:42;;;;;;;7.30;4.47;;;2.60;99.90;;;;;;4995778;28;20115;-73
2022/04/01 09:06:08;;;;;;;8.18;5.32;;;2.60;99.90;;;;;;4986143;28;20057;-68
2022/04/01 09:08:38;;;;;;;8.55;5.38;;;2.80;99.90;;;;;;4990756;28;20046;-69
2022/04/01 09:11:19;;;;;;;9.55;5.80;;;2.90;99.90;;;;;;4996251;28;20045;-71
2022/04/01 09:13:48;;;;;;;7.78;5.55;;;3.00;99.90;;;;;;4982589;28;20113;-72
2022/04/01 09:16:38;;;;;;;9.52;5.05;;;3.10;99.90;;;;;;4979972;28;20042;-72
2022/04/01 09:19:05;;;;;;;6.93;4.53;;;2.90;99.90;;;;;;4994099;28;20042;-72
2022/04/01 09:21:33;;;;;;;8.95;4.53;;;2.80;99.90;;;;;;4995319;28;20462;-73
2022/04/01 09:24:00;;;;;;;5.72;3.90;;;2.90;99.90;;;;;;4995320;28;20078;-72
2022/04/01 09:26:37;;;;;;;8.68;4.22;;;2.90;99.90;;;;;;4995316;28;20042;-75
2022/04/01 09:29:06;;;;;;;10.23;4.70;;;2.90;99.90;;;;;;4993741;28;20050;-73
2022/04/01 09:31:34;;;;;;;5.65;3.60;;;3.10;99.90;;;;;;4995965;28;20042;-70
2022/04/01 09:34:01;;;;;;;11.60;4.72;;;3.10;99.90;;;;;;4977873;28;20054;-73
2022/04/01 09:36:38;;;;;;;7.18;4.05;;;3.20;99.90;;;;;;4994836;28;20470;-70
2022/04/01 09:39:07;;;;;;;9.40;4.85;;;3.00;99.90;;;;;;4993711;28;20050;-71
2022/04/01 09:41:52;;;;;;;7.88;4.40;;;2.90;99.90;;;;;;4994897;28;20046;-71
2022/04/01 09:44:29;;;;;;;6.22;4.30;;;3.00;99.90;;;;;;4975067;28;20046;-72
2022/04/01 09:47:01;;;;;;;9.38;4.57;;;3.10;99.90;;;;;;4977621;28;20046;-70
2022/04/01 09:49:36;;;;;;;5.72;4.70;;;3.20;99.90;;;;;;4984552;28;20056;-73
2022/04/01 09:52:07;;;;;;;7.10;4.72;;;3.50;99.90;;;;;;4985632;28;20035;-71
2022/04/01 09:54:33;;;;;;;7.82;4.80;;;3.20;99.90;;;;;;4992489;28;20053;-70
2022/04/01 09:56:59;;;;;;;9.43;4.38;;;3.20;99.90;;;;;;4995150;28;20121;-71
2022/04/01 09:59:33;;;;;;;9.00;4.90;;;3.20;99.90;;;;;;4994596;28;20133;-71
2022/04/01 10:01:59;;;;;;;7.20;5.10;;;3.30;99.90;;;;;;4995607;28;20418;-72
2022/04/01 10:04:25;;;;;;;7.50;5.43;;;3.30;99.90;;;;;;4977596;28;20137;-71
2022/04/01 10:06:52;;;;;;;8.45;4.20;;;3.60;99.90;;;;;;4991770;28;20126;-73
2022/04/01 10:09:20;;;;;;;6.18;3.70;;;3.40;99.90;;;;;;4972516;28;20105;-72
2022/04/01 10:11:47;;;;;;;5.25;3.20;;;3.50;99.90;;;;;;4996829;28;20035;-72
2022/04/01 10:14:18;;;;;;;8.30;3.70;;;3.60;99.90;;;;;;4994577;28;20141;-73
2022/04/01 10:16:45;;;;;;;6.57;3.45;;;3.60;99.90;;;;;;4994081;28;20046;-72
2022/04/01 10:19:14;;;;;;;8.23;3.55;;;3.60;99.90;;;;;;4991427;28;20067;-70
2022/04/01 10:21:43;;;;;;;4.13;2.65;;;3.80;99.90;;;;;;4992608;28;20054;-73
2022/04/01 10:24:42;;;;;;;5.22;3.17;;;3.90;99.90;;;;;;4995356;28;20096;-74
2022/04/01 10:27:29;;;;;;;6.88;3.17;;;3.90;99.90;;;;;;4997079;28;20102;-73
2022/04/01 10:29:56;;;;;;;5.40;2.72;;;3.90;99.90;;;;;;4991106;28;20090;-74
2022/04/01 10:32:43;;;;;;;5.03;3.22;;;3.90;99.90;;;;;;4973642;28;20046;-73
2022/04/01 10:35:30;;;;;;;5.38;2.95;;;4.00;99.90;;;;;;4996358;28;20516;-73
2022/04/01 10:38:18;;;;;;;6.35;3.28;;;4.00;99.90;;;;;;4978471;28;20046;-72
2022/04/01 10:40:46;;;;;;;7.93;3.10;;;4.20;99.90;;;;;;4996964;28;20122;-73
2022/04/01 10:43:26;;;;;;;4.70;2.70;;;4.40;99.90;;;;;;4998101;28;20049;-73
2022/04/01 10:46:01;;;;;;;4.93;2.70;;;4.40;99.90;;;;;;4998216;28;20046;-72
2022/04/01 10:54:12;;;;;;;;;;;4.40;99.90;;;;;;4997091;28;20096;-73
2022/04/01 10:56:39;;;;;;;4.65;2.58;;;4.20;99.90;;;;;;4978037;28;19933;-73
2022/04/01 10:59:12;;;;;;;8.88;2.78;;;4.30;99.90;;;;;;4997370;28;20035;-73
2022/04/01 11:01:51;;;;;;;6.30;3.20;;;4.00;99.90;;;;;;4995418;28;20042;-74
2022/04/01 11:04:17;;;;;;;4.47;2.78;;;3.90;99.90;;;;;;4997818;28;20034;-75
2022/04/01 11:06:55;;;;;;;5.75;3.13;;;3.90;99.90;;;;;;4997651;28;20133;-74
2022/04/01 11:09:45;;;;;;;6.22;3.10;;;3.90;99.90;;;;;;4995630;28;20141;-73
2022/04/01 11:12:21;;;;;;;5.05;2.67;;;4.10;99.90;;;;;;4996856;28;20082;-74
2022/04/01 11:15:17;;;;;;;7.20;2.70;;;4.30;99.90;;;;;;4996139;28;20057;-73
2022/04/01 11:17:47;;;;;;;5.00;2.70;;;4.40;99.90;;;;;;4995417;28;20051;-73
2022/04/01 11:20:19;;;;;;;3.72;2.40;;;4.20;99.90;;;;;;4996906;28;20055;-73
2022/04/01 11:22:53;;;;;;;4.13;2.25;;;4.20;99.90;;;;;;4997525;28;20065;-73
2022/04/01 11:25:22;;;;;;;4.45;2.63;;;4.40;99.90;;;;;;4995190;28;20042;-73
2022/04/01 11:28:03;;;;;;;8.50;2.38;;;4.30;99.90;;;;;;4997326;28;20049;-73
2022/04/01 11:30:34;;;;;;;4.10;2.22;;;4.20;99.90;;;;;;4996127;28;20074;-73
2022/04/01 11:33:12;;;;;;;6.15;2.33;;;4.30;99.90;;;;;;4988914;28;20104;-72
2022/04/01 11:35:40;;;;;;;3.55;1.95;;;4.20;99.90;;;;;;4994201;28;20038;-73
2022/04/01 11:38:14;;;;;;;4.97;2.45;;;4.30;99.90;;;;;;4996455;28;20073;-75
2022/04/01 11:40:40;;;;;;;5.82;2.45;;;4.40;99.90;;;;;;4994771;28;20047;-72
2022/04/01 11:43:08;;;;;;;6.22;2.53;;;4.50;99.90;;;;;;4997286;28;20479;-73
2022/04/01 11:45:43;;;;;;;6.18;2.25;;;4.70;99.90;;;;;;4975424;28;20501;-73
2022/04/01 11:48:22;;;;;;;4.13;2.42;;;5.00;99.90;;;;;;4996818;28;20042;-72
2022/04/01 11:50:52;;;;;;;6.18;2.70;;;4.90;99.90;;;;;;4996542;28;20038;-72
2022/04/01 11:53:32;;;;;;;5.32;2.40;;;5.20;99.90;;;;;;5001728;28;20045;-71
2022/04/01 11:55:59;;;;;;;6.65;2.38;;;5.30;99.90;;;;;;4980225;28;20133;-73
2022/04/01 11:58:26;;;;;;;4.90;2.50;;;5.40;99.90;;;;;;4996959;28;20474;-74
2022/04/01 12:00:52;;;;;;;5.93;2.80;;;5.50;99.90;;;;;;4996859;28;20374;-71
2022/04/01 12:03:20;;;;;;;6.10;2.30;;;5.50;99.90;;;;;;5001697;28;20034;-71
2022/04/01 12:05:51;;;;;;;8.73;2.40;;;5.60;99.90;;;;;;4996442;28;20038;-72
2022/04/01 12:11:04;;;;;;;6.85;2.35;;;5.90;99.90;;;;;;4993842;28;20454;-71
2022/04/01 12:13:31;;;;;;;10.40;2.28;;;5.80;99.90;;;;;;4996853;28;20478;-71
2022/04/01 12:15:58;;;;;;;7.70;2.22;;;5.90;99.90;;;;;;4996373;28;20125;-70
2022/04/01 12:18:28;;;;;;;5.57;2.10;;;5.80;99.90;;;;;;4979399;28;20046;-72
2022/04/01 12:20:59;;;;;;;4.68;2.20;;;5.80;99.90;;;;;;4996442;28;20062;-72
2022/04/01 12:23:30;;;;;;;6.03;2.05;;;5.60;99.90;;;;;;4996190;28;20359;-70
2022/04/01 12:25:56;;;;;;;5.05;2.17;;;5.60;99.90;;;;;;4996440;28;20047;-73
2022/04/01 12:28:34;;;;;;;4.28;1.90;;;5.80;99.90;;;;;;4996101;28;20039;-71
2022/04/01 12:30:59;;;;;;;3.95;2.25;;;5.80;99.90;;;;;;4976535;28;20051;-73
2022/04/01 12:33:30;;;;;;;4.78;2.22;;;5.90;99.90;;;;;;4981336;28;20370;-72
2022/04/01 12:36:01;;;;;;;3.42;1.90;;;6.00;99.90;;;;;;4995879;28;20085;-71
2022/04/01 12:38:32;;;;;;;3.63;2.20;;;6.20;99.90;;;;;;4995888;28;20069;-72
2022/04/01 12:41:03;;;;;;;3.88;1.63;;;5.80;99.90;;;;;;4996006;28;20043;-72
2022/04/01 12:43:43;;;;;;;3.75;2.03;;;5.80;99.90;;;;;;4996242;28;20050;-72
2022/04/01 12:46:12;;;;;;;6.55;2.03;;;5.80;99.90;;;;;;4994504;28;20034;-73
2022/04/01 12:48:50;;;;;;;4.78;1.95;;;5.90;99.90;;;;;;4995630;28;20050;-72
2022/04/01 12:51:21;;;;;;;5.82;2.05;;;5.80;99.90;;;;;;4995178;28;20057;-71
2022/04/01 12:54:02;;;;;;;5.80;2.20;;;5.80;99.90;;;;;;4995833;28;20185;-72
2022/04/01 12:56:30;;;;;;;5.32;2.30;;;5.80;99.90;;;;;;4986426;28;20367;-73
2022/04/01 12:58:59;;;;;;;3.47;2.00;;;5.90;99.90;;;;;;4984061;28;20173;-73
2022/04/01 13:01:30;;;;;;;7.75;2.17;;;5.90;99.90;;;;;;4974118;28;20054;-72
2022/04/01 13:03:57;;;;;;;6.32;2.25;;;5.80;99.90;;;;;;4995588;28;20344;-72
2022/04/01 13:06:25;;;;;;;8.93;2.38;;;5.60;99.90;;;;;;4985637;28;20627;-73
2022/04/01 13:09:07;;;;;;;7.72;2.17;;;5.70;99.90;;;;;;4992902;28;20128;-72
2022/04/01 13:11:43;;;;;;;6.88;2.17;;;5.70;99.90;;;;;;4993116;28;20056;-69
2022/04/01 13:14:26;;;;;;;8.95;2.85;;;5.80;99.90;;;;;;4995705;28;20053;-72
2022/04/01 13:16:54;;;;;;;10.70;2.65;;;5.90;99.90;;;;;;4992958;28;20249;-67
2022/04/01 13:19:28;;;;;;;5.30;2.33;;;5.90;99.90;;;;;;4994854;28;20042;-69
2022/04/01 13:22:02;;;;;;;6.10;2.65;;;5.80;99.90;;;;;;4986374;28;20579;-72
2022/04/01 13:24:49;;;;;;;4.35;2.50;;;5.80;99.90;;;;;;5014688;28;20462;-73
2022/04/01 13:27:19;;;;;;;6.15;2.53;;;5.70;99.90;;;;;;5014950;28;20115;-72